Airfield :
LOGIN :

Register | Disclaimer

   EN    FR    IT 

 










Legend :    VFR   Marginal VFR   IFR   Intensive IFR   Very Intensive IFR
Visi :
Ceiling :
>= 8 km
>= 3000ft
5 to 8 km
1000 to 3000 ft
1500m to 5 km
500 to 1000 ft
800 to 1500m
200 to 500 ft
< 800m
< 200 ft
Symbols :   Thunderstorms  Fog  Heavy snow  Heavy precipitations  Wind > 20 kt
SIGMETs :     Misc.  Thunderstorms  Icing  Turbulence  Mountain Waves  Volcanic Ashes







- Airport Elevation : 1906 ft
- IATA code : INN


LOWI - Innsbruck

CURRENT METAR :
  • 192250Z AUTO 25002KT 9999 FEW240 15/12 Q1024

EXPIRED METARs :
  • 192220Z AUTO VRB01KT 9999 FEW240 14/13 Q1024
  • 192150Z AUTO VRB01KT 9999 FEW240 15/13 Q1024
  • 192120Z AUTO VRB02KT 9999 FEW240 15/13 Q1024
  • 192050Z 25002KT CAVOK 16/13 Q1024 NOSIG
  • 192020Z VRB01KT CAVOK 16/13 Q1024 NOSIG

TAF TAF LOWI
Valid from the 19 at 18:00 until the 20 at 18:00 UTC


191715Z 1918/2018 VRB02KT CAVOK TX27/2014Z TN12/2005Z
BECMG 2009/2011 07007KT 9999 FEW070
BECMG 2016/2018 VRB02KT CAVOK
No reported NOTAMs for that airfield.



MET'MAP, your aeronautical weather chart ! - Copyright ORBIFLY December 2007 - Disclaimer

ORBIFLY MET'MAP TEAM :

Programming & Development : Alexandra Zaïnal
Concept & Development : Baudouin d'Aumeries
Co-Development & Prog : Marc-Olivier Méhu
Technical & hardware support : Manuel Goepfert

Contact : metmap@orbifly.com




SOURCES & CREDITS :

   NOAA